Time;durP1;ratioP1;P1;durP2;ratioP2;P2;SDS_P1;SDS_P2;PMS_P1;PMS_P2;Temp;Humidity;BMP_temperature;BMP_pressure;BME280_temperature;BME280_humidity;BME280_pressure;Samples;Min_cycle;Max_cycle;Signal;HPM_P1;HPM_P2
2023/12/08 00:00:45;;;;;;;15.33;8.60;;;2.90;72.70;;;;;;5029396;28;20200;-75
2023/12/08 00:03:12;;;;;;;17.23;9.65;;;2.90;72.60;;;;;;5036078;28;20208;-75
2023/12/08 00:05:37;;;;;;;18.30;9.70;;;2.80;72.40;;;;;;5035219;28;20181;-75
2023/12/08 00:08:03;;;;;;;22.83;9.77;;;2.90;72.60;;;;;;5038696;28;20677;-76
2023/12/08 00:10:29;;;;;;;25.20;10.87;;;2.90;72.40;;;;;;5034630;28;20205;-73
2023/12/08 00:12:56;;;;;;;20.23;9.70;;;2.70;73.50;;;;;;5035117;28;20186;-74
2023/12/08 00:15:21;;;;;;;19.55;9.80;;;2.60;73.70;;;;;;5034441;28;20272;-73
2023/12/08 00:17:47;;;;;;;22.87;10.00;;;2.50;74.00;;;;;;5035663;28;20264;-75
2023/12/08 00:20:12;;;;;;;22.00;11.80;;;2.50;74.30;;;;;;5037277;28;20201;-74
2023/12/08 00:22:39;;;;;;;21.20;11.00;;;2.50;74.20;;;;;;5035455;28;20184;-74
2023/12/08 00:25:05;;;;;;;22.77;10.60;;;2.40;74.20;;;;;;5037311;28;20181;-75
2023/12/08 00:27:31;;;;;;;19.87;10.17;;;2.50;74.20;;;;;;5043736;28;20467;-75
2023/12/08 00:29:56;;;;;;;22.37;11.53;;;2.60;74.20;;;;;;5037594;28;20226;-74
2023/12/08 00:32:22;;;;;;;18.33;10.73;;;2.60;74.00;;;;;;5037763;28;20215;-75
2023/12/08 00:34:47;;;;;;;19.33;10.20;;;2.60;74.00;;;;;;5037197;28;20189;-73
2023/12/08 00:37:13;;;;;;;20.63;11.17;;;2.70;73.90;;;;;;5039549;28;20184;-73
2023/12/08 00:39:40;;;;;;;20.53;10.20;;;2.80;73.90;;;;;;5034671;28;20209;-74
2023/12/08 00:42:06;;;;;;;21.33;10.27;;;2.80;73.50;;;;;;5030355;28;20196;-75
2023/12/08 00:44:31;;;;;;;24.63;10.53;;;2.80;73.20;;;;;;5034360;28;20822;-75
2023/12/08 00:46:57;;;;;;;20.37;9.60;;;2.80;73.20;;;;;;5034473;28;20188;-73
2023/12/08 00:49:22;;;;;;;20.10;10.00;;;2.80;73.00;;;;;;5025741;28;20565;-74
2023/12/08 00:51:48;;;;;;;19.40;9.97;;;2.80;73.00;;;;;;5038050;28;20212;-74
2023/12/08 00:54:14;;;;;;;20.03;11.67;;;2.90;73.00;;;;;;5036549;28;20224;-74
2023/12/08 00:56:39;;;;;;;19.77;9.90;;;2.80;72.90;;;;;;5034022;28;20288;-75
2023/12/08 00:59:05;;;;;;;19.00;11.37;;;2.90;73.00;;;;;;5034425;28;20940;-75
2023/12/08 01:01:31;;;;;;;17.93;9.77;;;2.90;73.20;;;;;;5031520;28;20565;-75
2023/12/08 01:03:56;;;;;;;22.97;11.10;;;2.90;73.30;;;;;;5036284;28;20239;-74
2023/12/08 01:06:22;;;;;;;20.53;10.70;;;2.90;72.90;;;;;;5032598;28;20284;-75
2023/12/08 01:08:49;;;;;;;19.87;10.33;;;2.80;72.90;;;;;;5033242;28;20189;-75
2023/12/08 01:11:15;;;;;;;21.67;10.80;;;2.90;73.20;;;;;;5026634;28;20865;-74
2023/12/08 01:13:40;;;;;;;20.40;10.43;;;2.90;73.20;;;;;;5029052;28;20440;-74
2023/12/08 01:16:06;;;;;;;17.93;9.23;;;3.00;73.30;;;;;;5036463;28;20213;-72
2023/12/08 01:18:33;;;;;;;19.03;9.80;;;3.00;73.20;;;;;;5036043;28;20177;-74
2023/12/08 01:20:58;;;;;;;19.73;10.40;;;3.10;73.00;;;;;;5031035;28;20463;-75
2023/12/08 01:23:24;;;;;;;16.13;9.40;;;3.20;73.00;;;;;;5041429;28;20296;-74
2023/12/08 01:25:49;;;;;;;16.47;9.33;;;3.20;72.70;;;;;;5038945;28;20228;-74
2023/12/08 01:28:15;;;;;;;18.73;9.13;;;3.10;72.60;;;;;;5038748;28;20185;-74
2023/12/08 01:30:41;;;;;;;13.97;8.87;;;3.10;72.60;;;;;;5050470;28;20285;-75
2023/12/08 01:33:06;;;;;;;19.03;10.23;;;3.20;72.70;;;;;;5038777;28;20281;-74
2023/12/08 01:35:32;;;;;;;19.20;10.53;;;3.10;72.60;;;;;;5031961;28;20188;-74
2023/12/08 01:37:57;;;;;;;18.90;10.10;;;3.00;72.60;;;;;;5034512;28;20197;-74
2023/12/08 01:40:23;;;;;;;18.50;9.60;;;3.00;73.00;;;;;;5027994;28;20251;-74
2023/12/08 01:42:49;;;;;;;20.53;10.47;;;3.00;73.30;;;;;;5039027;28;20241;-74
2023/12/08 01:45:14;;;;;;;17.30;9.70;;;3.00;73.20;;;;;;5035256;28;20634;-74
2023/12/08 01:47:41;;;;;;;19.50;10.03;;;3.00;73.20;;;;;;5033890;28;20212;-74
2023/12/08 01:50:08;;;;;;;17.20;9.57;;;3.00;73.30;;;;;;5029004;28;20304;-75
2023/12/08 01:52:36;;;;;;;23.57;10.10;;;3.10;73.30;;;;;;5036070;28;20463;-74
2023/12/08 01:55:02;;;;;;;18.20;10.00;;;3.10;73.50;;;;;;5037521;28;20424;-75
2023/12/08 01:57:28;;;;;;;20.40;10.50;;;3.10;73.30;;;;;;5025615;28;20420;-74
2023/12/08 01:59:55;;;;;;;17.80;9.70;;;3.10;73.50;;;;;;5026775;28;20543;-74
2023/12/08 02:02:21;;;;;;;20.47;10.93;;;3.10;73.30;;;;;;5031352;28;20213;-73
2023/12/08 02:04:49;;;;;;;16.63;9.90;;;3.10;73.30;;;;;;5026611;28;20495;-74
2023/12/08 02:07:15;;;;;;;18.10;10.10;;;3.10;73.30;;;;;;5028325;28;20178;-73
2023/12/08 02:09:41;;;;;;;21.87;9.33;;;3.20;73.20;;;;;;5027310;28;20465;-73
2023/12/08 02:12:08;;;;;;;14.83;8.93;;;3.30;73.20;;;;;;5031759;28;20641;-76
2023/12/08 02:14:33;;;;;;;17.53;8.90;;;3.30;73.20;;;;;;5034282;28;20184;-74
2023/12/08 02:17:18;;;;;;;15.60;8.10;;;3.30;73.00;;;;;;5036016;28;20428;-75
2023/12/08 02:19:44;;;;;;;21.97;10.20;;;3.40;73.00;;;;;;5023543;28;20216;-74
2023/12/08 02:22:09;;;;;;;20.47;10.07;;;3.40;72.90;;;;;;5032344;28;20412;-74
2023/12/08 02:24:35;;;;;;;18.33;9.10;;;3.40;72.90;;;;;;5030906;28;20537;-73
2023/12/08 02:27:02;;;;;;;17.87;8.77;;;3.40;72.70;;;;;;5030362;28;20192;-74
2023/12/08 02:29:28;;;;;;;15.77;9.50;;;3.30;72.60;;;;;;5027139;28;20981;-75
2023/12/08 02:32:07;;;;;;;17.93;8.87;;;3.30;72.60;;;;;;5031846;28;20416;-75
2023/12/08 02:34:34;;;;;;;16.40;8.93;;;3.20;72.60;;;;;;5032763;28;20430;-75
2023/12/08 02:37:02;;;;;;;16.33;9.20;;;3.20;72.70;;;;;;5029837;28;20423;-75
2023/12/08 02:39:29;;;;;;;15.15;9.00;;;3.20;72.90;;;;;;5025686;28;20447;-77
2023/12/08 02:41:54;;;;;;;14.40;8.00;;;3.10;73.00;;;;;;5031851;28;20197;-76
2023/12/08 02:44:20;;;;;;;18.10;9.17;;;3.10;73.20;;;;;;5033516;28;20482;-75
2023/12/08 02:46:46;;;;;;;18.57;8.93;;;3.10;73.20;;;;;;5025745;28;20257;-74
2023/12/08 02:49:12;;;;;;;16.23;8.80;;;3.10;73.50;;;;;;5026292;28;20223;-76
2023/12/08 02:51:37;;;;;;;19.10;8.40;;;3.10;73.70;;;;;;5028605;28;20432;-75
2023/12/08 02:54:03;;;;;;;18.80;8.70;;;3.00;73.70;;;;;;5027008;28;20189;-74
2023/12/08 02:56:28;;;;;;;17.00;8.50;;;3.00;73.70;;;;;;5031387;28;20543;-75
2023/12/08 02:58:54;;;;;;;17.07;8.77;;;3.10;73.70;;;;;;5034791;28;20599;-73
2023/12/08 03:01:20;;;;;;;13.70;8.37;;;3.10;73.60;;;;;;5024871;28;20213;-73
2023/12/08 03:03:45;;;;;;;15.03;8.67;;;3.20;73.70;;;;;;5032129;28;20211;-74
2023/12/08 03:06:11;;;;;;;19.57;9.00;;;3.10;73.60;;;;;;5030849;28;20686;-74
2023/12/08 03:08:36;;;;;;;20.67;9.47;;;3.20;73.70;;;;;;5030024;28;20614;-73
2023/12/08 03:11:02;;;;;;;17.40;8.50;;;3.20;73.70;;;;;;5024691;28;20217;-73
2023/12/08 03:13:28;;;;;;;13.23;8.33;;;3.20;73.70;;;;;;5033223;28;20189;-73
2023/12/08 03:15:53;;;;;;;15.30;8.60;;;3.30;73.60;;;;;;5037479;28;20232;-74
2023/12/08 03:18:19;;;;;;;16.70;7.60;;;3.30;73.50;;;;;;5041599;28;20822;-74
2023/12/08 03:20:44;;;;;;;17.17;8.07;;;3.30;73.50;;;;;;5035091;28;20579;-74
2023/12/08 03:23:10;;;;;;;17.10;7.70;;;3.30;73.30;;;;;;5038267;28;20239;-72
2023/12/08 03:25:35;;;;;;;13.10;7.40;;;3.30;73.30;;;;;;5039714;28;20271;-75
2023/12/08 03:28:01;;;;;;;15.50;6.77;;;3.30;73.30;;;;;;5040743;28;20189;-75
2023/12/08 03:30:27;;;;;;;13.70;8.17;;;3.30;73.20;;;;;;5035709;28;20228;-75
2023/12/08 03:32:52;;;;;;;14.13;7.17;;;3.20;73.20;;;;;;5032888;28;20180;-73
2023/12/08 03:35:20;;;;;;;12.83;8.00;;;3.30;73.50;;;;;;5034461;28;20189;-73
2023/12/08 03:37:46;;;;;;;16.07;8.17;;;3.30;73.50;;;;;;5031446;28;20556;-75
2023/12/08 03:40:11;;;;;;;12.30;6.90;;;3.40;73.60;;;;;;5028028;28;20457;-73
2023/12/08 03:42:37;;;;;;;15.33;7.77;;;3.40;73.50;;;;;;5031954;28;20193;-74
2023/12/08 03:45:04;;;;;;;14.80;7.33;;;3.30;73.60;;;;;;5040058;28;20312;-75
2023/12/08 03:47:30;;;;;;;13.83;7.13;;;3.30;73.60;;;;;;5039932;28;20999;-75
2023/12/08 03:49:55;;;;;;;17.27;7.73;;;3.30;73.60;;;;;;5027376;28;20574;-74
2023/12/08 03:52:21;;;;;;;13.10;7.67;;;3.30;73.70;;;;;;5035313;28;20228;-75
2023/12/08 03:54:46;;;;;;;15.00;7.37;;;3.40;73.60;;;;;;5045157;28;20669;-76
2023/12/08 03:57:12;;;;;;;16.37;7.40;;;3.50;73.60;;;;;;5034529;28;20184;-73
2023/12/08 03:59:37;;;;;;;16.07;8.33;;;3.50;73.60;;;;;;5027402;28;20213;-73
2023/12/08 04:02:03;;;;;;;16.87;8.23;;;3.50;73.50;;;;;;5031776;28;20648;-76
2023/12/08 04:04:29;;;;;;;16.30;9.40;;;3.30;73.20;;;;;;5029938;28;20201;-76
2023/12/08 04:06:55;;;;;;;12.73;7.37;;;3.40;73.30;;;;;;5030536;28;20515;-74
2023/12/08 04:09:21;;;;;;;10.80;7.40;;;3.50;73.50;;;;;;5026829;28;20181;-73
2023/12/08 04:11:47;;;;;;;14.00;8.00;;;3.50;73.30;;;;;;5024156;28;20420;-72
2023/12/08 04:14:12;;;;;;;12.50;7.70;;;3.50;73.20;;;;;;5030751;28;20182;-73
2023/12/08 04:16:38;;;;;;;18.60;7.37;;;3.50;73.30;;;;;;5033805;28;20208;-74
2023/12/08 04:19:03;;;;;;;12.00;7.30;;;3.50;73.50;;;;;;5032447;28;20239;-74
2023/12/08 04:21:29;;;;;;;12.70;6.77;;;3.60;73.50;;;;;;5021957;28;20208;-75
2023/12/08 04:23:55;;;;;;;12.10;7.30;;;3.60;73.50;;;;;;5033495;28;20288;-74
2023/12/08 04:26:24;;;;;;;17.50;7.67;;;3.60;73.50;;;;;;5032824;28;20529;-75
2023/12/08 04:28:52;;;;;;;11.30;6.20;;;3.50;73.30;;;;;;5032545;28;20684;-75
2023/12/08 04:31:18;;;;;;;13.00;6.93;;;3.60;73.50;;;;;;5023658;28;20464;-74
2023/12/08 04:33:43;;;;;;;16.00;6.70;;;3.50;73.30;;;;;;5027083;28;20423;-75
2023/12/08 04:36:09;;;;;;;19.80;9.77;;;3.50;73.20;;;;;;5026409;28;20185;-75
2023/12/08 04:38:35;;;;;;;11.23;6.97;;;3.60;73.30;;;;;;5037028;28;20256;-74
2023/12/08 04:41:00;;;;;;;10.20;6.17;;;3.60;73.20;;;;;;5031539;28;20285;-74
2023/12/08 04:43:26;;;;;;;13.73;6.67;;;3.70;73.30;;;;;;5037602;28;20209;-74
2023/12/08 04:45:52;;;;;;;12.73;7.00;;;3.80;73.20;;;;;;5041846;28;20227;-75
2023/12/08 04:48:17;;;;;;;11.57;6.73;;;3.80;73.00;;;;;;5038812;28;20189;-75
2023/12/08 04:50:44;;;;;;;8.40;5.90;;;3.80;73.30;;;;;;5029838;28;20292;-74
2023/12/08 04:53:10;;;;;;;12.23;7.07;;;3.80;73.60;;;;;;5033116;28;20191;-74
2023/12/08 04:55:36;;;;;;;10.77;5.90;;;3.90;73.70;;;;;;5031772;28;20510;-75
2023/12/08 04:58:01;;;;;;;11.20;6.60;;;3.90;73.70;;;;;;5033001;28;20181;-76
2023/12/08 05:00:27;;;;;;;13.80;7.23;;;4.00;73.90;;;;;;5029280;28;20243;-74
2023/12/08 05:02:53;;;;;;;11.10;7.07;;;4.00;74.00;;;;;;5030479;28;20184;-76
2023/12/08 05:05:18;;;;;;;12.90;7.60;;;4.00;74.50;;;;;;5032444;28;20257;-75
2023/12/08 05:07:44;;;;;;;11.93;7.37;;;4.00;74.60;;;;;;5032594;28;20250;-75
2023/12/08 05:10:10;;;;;;;17.20;8.07;;;4.00;74.90;;;;;;5029948;28;20205;-74
2023/12/08 05:12:35;;;;;;;12.60;6.70;;;4.10;75.40;;;;;;5032907;28;21002;-74
2023/12/08 05:15:01;;;;;;;14.23;7.20;;;4.20;75.80;;;;;;5029446;28;20603;-73
2023/12/08 05:17:26;;;;;;;14.43;7.70;;;4.30;75.80;;;;;;5031805;28;20196;-73
2023/12/08 05:19:52;;;;;;;14.07;7.90;;;4.30;76.10;;;;;;5031527;28;20215;-75
2023/12/08 05:22:18;;;;;;;15.63;8.13;;;4.40;76.20;;;;;;5031107;28;20185;-76
2023/12/08 05:24:43;;;;;;;14.03;8.03;;;4.30;76.20;;;;;;5025384;28;20216;-73
2023/12/08 05:27:09;;;;;;;14.50;8.10;;;4.30;76.10;;;;;;5027080;28;20700;-73
2023/12/08 05:29:34;;;;;;;17.80;8.53;;;4.30;76.20;;;;;;5029598;28;20213;-73
2023/12/08 05:32:00;;;;;;;13.30;7.83;;;4.20;76.20;;;;;;5030021;28;20719;-76
2023/12/08 05:34:26;;;;;;;11.53;7.83;;;4.20;76.40;;;;;;5035039;28;20181;-75
2023/12/08 05:36:51;;;;;;;12.97;8.00;;;4.20;76.50;;;;;;5038186;28;20181;-74
2023/12/08 05:39:17;;;;;;;13.23;7.67;;;4.30;77.30;;;;;;5039014;28;20192;-76
2023/12/08 05:41:42;;;;;;;13.57;6.67;;;4.20;77.80;;;;;;5032442;28;20555;-76
2023/12/08 05:44:08;;;;;;;11.23;7.00;;;4.20;78.60;;;;;;5037670;28;20233;-78
2023/12/08 05:46:34;;;;;;;10.77;5.90;;;4.20;79.30;;;;;;5037222;28;20177;-76
2023/12/08 05:49:00;;;;;;;13.57;6.70;;;4.30;79.90;;;;;;5035082;28;20181;-77
2023/12/08 05:51:25;;;;;;;11.90;6.63;;;4.30;80.20;;;;;;5032668;28;20570;-75
2023/12/08 05:53:51;;;;;;;14.87;7.07;;;4.20;80.50;;;;;;5033386;28;20184;-75
2023/12/08 05:56:16;;;;;;;11.80;7.53;;;4.20;80.50;;;;;;5031306;28;20268;-73
2023/12/08 05:58:42;;;;;;;16.17;8.53;;;4.10;79.70;;;;;;5031481;28;20173;-74
2023/12/08 06:01:10;;;;;;;17.80;9.03;;;4.10;79.60;;;;;;5030724;28;20200;-72
2023/12/08 06:03:36;;;;;;;13.10;8.07;;;3.90;78.70;;;;;;5034113;28;20227;-71
2023/12/08 06:06:02;;;;;;;14.60;8.57;;;3.80;78.90;;;;;;5045479;28;20439;-71
2023/12/08 06:08:27;;;;;;;12.43;8.30;;;3.80;79.50;;;;;;5036297;28;20181;-72
2023/12/08 06:10:53;;;;;;;18.23;9.63;;;3.80;79.70;;;;;;5034539;28;20200;-74
2023/12/08 06:13:18;;;;;;;15.67;8.27;;;3.80;80.00;;;;;;5033694;28;20189;-75
2023/12/08 06:15:44;;;;;;;21.40;9.70;;;3.80;80.30;;;;;;5034127;28;20713;-73
2023/12/08 06:18:10;;;;;;;18.70;9.43;;;3.80;80.60;;;;;;5026202;28;20185;-75
2023/12/08 06:20:36;;;;;;;17.40;9.13;;;3.80;80.80;;;;;;5028590;28;20247;-74
2023/12/08 06:23:01;;;;;;;20.80;9.17;;;3.70;80.50;;;;;;5033199;28;20565;-73
2023/12/08 06:25:27;;;;;;;14.80;7.80;;;3.70;80.20;;;;;;5031907;28;20280;-74
2023/12/08 06:27:53;;;;;;;16.30;8.67;;;3.60;79.50;;;;;;5034544;28;20193;-75
2023/12/08 06:30:19;;;;;;;17.00;8.67;;;3.60;79.50;;;;;;5034492;28;20251;-75
2023/12/08 06:32:44;;;;;;;14.57;8.20;;;3.60;79.60;;;;;;5040164;28;20453;-75
2023/12/08 06:35:10;;;;;;;16.30;8.60;;;3.60;79.60;;;;;;5042235;28;20193;-72
2023/12/08 06:37:35;;;;;;;18.33;9.60;;;3.50;80.20;;;;;;5039686;28;20194;-74
2023/12/08 06:40:01;;;;;;;15.43;8.97;;;3.60;80.90;;;;;;5033465;28;20704;-74
2023/12/08 06:42:27;;;;;;;15.97;8.37;;;3.50;81.10;;;;;;5035506;28;20188;-73
2023/12/08 06:44:52;;;;;;;24.10;9.80;;;3.40;81.40;;;;;;5035299;28;20217;-72
2023/12/08 06:47:18;;;;;;;20.33;10.30;;;3.50;81.90;;;;;;5034923;28;20189;-74
2023/12/08 06:49:43;;;;;;;17.73;8.90;;;3.50;82.20;;;;;;5033848;28;20236;-75
2023/12/08 06:52:09;;;;;;;16.27;9.20;;;3.50;82.40;;;;;;5031800;28;20271;-73
2023/12/08 06:54:35;;;;;;;16.20;9.00;;;3.50;82.40;;;;;;5037978;28;20213;-73
2023/12/08 06:57:00;;;;;;;14.40;8.38;;;3.50;82.50;;;;;;5028154;28;20192;-75
2023/12/08 06:59:26;;;;;;;20.53;10.87;;;3.70;82.80;;;;;;5029754;28;20181;-74
2023/12/08 07:01:52;;;;;;;19.03;9.10;;;3.70;82.50;;;;;;5025079;28;20213;-73
2023/12/08 07:04:17;;;;;;;17.90;8.30;;;3.80;82.50;;;;;;5031860;28;20307;-74
2023/12/08 07:06:44;;;;;;;17.90;9.20;;;3.80;82.10;;;;;;5026458;28;20186;-74
2023/12/08 07:09:11;;;;;;;14.60;8.90;;;3.70;82.20;;;;;;5036522;28;20239;-76
2023/12/08 07:11:37;;;;;;;16.67;9.20;;;3.70;82.80;;;;;;5042919;28;20423;-76
2023/12/08 07:14:02;;;;;;;15.20;9.27;;;3.60;83.30;;;;;;5050452;28;20424;-77
2023/12/08 07:16:28;;;;;;;19.43;9.10;;;3.60;83.60;;;;;;5044551;28;20212;-75
2023/12/08 07:18:54;;;;;;;19.73;8.80;;;3.60;83.80;;;;;;5039880;28;20265;-77
2023/12/08 07:21:19;;;;;;;17.53;9.47;;;3.70;84.30;;;;;;5045391;28;20233;-76
2023/12/08 07:23:45;;;;;;;16.67;9.43;;;3.70;84.70;;;;;;5032753;28;20302;-77
2023/12/08 07:26:10;;;;;;;22.33;10.20;;;3.70;84.70;;;;;;5032308;28;20189;-74
2023/12/08 07:28:37;;;;;;;17.33;9.37;;;3.70;85.00;;;;;;5031461;28;20268;-77
2023/12/08 07:31:03;;;;;;;18.53;9.03;;;3.80;85.20;;;;;;5026058;28;20204;-74
2023/12/08 07:33:28;;;;;;;17.73;9.30;;;3.80;85.30;;;;;;5039583;28;20541;-74
2023/12/08 07:35:54;;;;;;;14.00;8.40;;;3.70;85.50;;;;;;5037753;28;20428;-76
2023/12/08 07:38:20;;;;;;;20.20;10.73;;;3.80;85.50;;;;;;5039264;28;20192;-76
2023/12/08 07:40:46;;;;;;;15.47;9.03;;;3.90;85.70;;;;;;5033078;28;20486;-74
2023/12/08 07:43:11;;;;;;;17.73;9.07;;;3.90;86.20;;;;;;5027714;28;20212;-74
2023/12/08 07:45:38;;;;;;;20.73;8.83;;;3.90;85.90;;;;;;5025697;28;20188;-77
2023/12/08 07:48:04;;;;;;;18.33;9.13;;;4.00;86.50;;;;;;5034031;28;20280;-75
2023/12/08 07:50:30;;;;;;;15.90;8.37;;;4.10;86.60;;;;;;5033412;28;20825;-76
2023/12/08 07:52:55;;;;;;;16.03;7.67;;;4.10;86.80;;;;;;5037974;28;20409;-76
2023/12/08 07:55:21;;;;;;;13.97;5.87;;;4.20;86.90;;;;;;5033839;28;20709;-73
2023/12/08 07:57:46;;;;;;;11.03;5.60;;;4.40;87.40;;;;;;5027189;28;20187;-76
2023/12/08 08:00:12;;;;;;;10.70;5.77;;;4.70;87.70;;;;;;5030672;28;20295;-73
2023/12/08 08:02:38;;;;;;;8.40;5.23;;;4.80;87.60;;;;;;5027106;28;20592;-74
2023/12/08 08:05:07;;;;;;;9.43;5.87;;;4.90;87.40;;;;;;5032784;28;20476;-74
2023/12/08 08:07:33;;;;;;;10.43;6.10;;;5.00;87.40;;;;;;5029130;28;20174;-76
2023/12/08 08:09:59;;;;;;;13.57;6.87;;;5.00;87.10;;;;;;5026721;28;20467;-76
2023/12/08 08:12:24;;;;;;;10.57;5.60;;;5.00;87.00;;;;;;5037257;28;20204;-75
2023/12/08 08:14:50;;;;;;;10.50;5.50;;;5.00;87.00;;;;;;5035195;28;20189;-73
2023/12/08 08:17:15;;;;;;;11.40;5.40;;;5.10;86.90;;;;;;5040090;28;20557;-74
2023/12/08 08:19:41;;;;;;;10.77;6.03;;;5.00;86.50;;;;;;5029328;28;20223;-74
2023/12/08 08:22:07;;;;;;;13.33;7.67;;;5.00;86.60;;;;;;5032373;28;20213;-74
2023/12/08 08:24:33;;;;;;;14.97;8.43;;;5.00;86.30;;;;;;5031826;28;20289;-74
2023/12/08 08:26:58;;;;;;;14.63;7.87;;;5.00;86.50;;;;;;5033019;28;20801;-76
2023/12/08 08:29:24;;;;;;;13.50;7.50;;;5.00;86.50;;;;;;5034390;28;20185;-75
2023/12/08 08:31:52;;;;;;;13.50;7.53;;;5.00;86.20;;;;;;5033787;28;20260;-75
2023/12/08 08:34:18;;;;;;;12.60;7.20;;;5.00;86.20;;;;;;5039590;28;20447;-74
2023/12/08 08:36:44;;;;;;;13.77;7.20;;;5.00;86.20;;;;;;5035361;28;20438;-76
2023/12/08 08:39:09;;;;;;;14.93;7.67;;;5.00;86.20;;;;;;5042145;28;20423;-74
2023/12/08 08:41:35;;;;;;;14.87;8.07;;;5.10;86.30;;;;;;5038809;28;20598;-75
2023/12/08 08:44:01;;;;;;;19.03;8.90;;;5.10;86.00;;;;;;5040597;28;20237;-76
2023/12/08 08:46:27;;;;;;;14.90;8.33;;;5.10;86.20;;;;;;5040302;28;20184;-77
2023/12/08 08:48:54;;;;;;;15.53;8.83;;;5.10;86.00;;;;;;5043067;28;20185;-76
2023/12/08 08:51:21;;;;;;;20.60;8.63;;;5.10;86.30;;;;;;5038447;28;20248;-76
2023/12/08 08:53:49;;;;;;;19.80;10.33;;;5.10;86.50;;;;;;5043120;28;20423;-75
2023/12/08 08:56:15;;;;;;;18.90;9.03;;;5.10;86.50;;;;;;5039954;28;20485;-77
2023/12/08 08:58:40;;;;;;;21.90;9.47;;;5.10;86.60;;;;;;5039701;28;20415;-78
2023/12/08 09:01:06;;;;;;;19.20;9.60;;;5.10;86.60;;;;;;5038337;28;20459;-76
2023/12/08 09:03:32;;;;;;;17.27;9.30;;;5.10;86.50;;;;;;5043138;28;20604;-76
2023/12/08 09:05:57;;;;;;;21.60;10.97;;;5.30;86.60;;;;;;5043874;28;20184;-76
2023/12/08 09:08:23;;;;;;;23.00;10.40;;;5.40;86.60;;;;;;5048545;28;20204;-72
2023/12/08 09:10:50;;;;;;;18.00;8.83;;;5.50;86.60;;;;;;5047945;28;20223;-76
2023/12/08 09:13:15;;;;;;;18.63;9.00;;;5.60;86.60;;;;;;5050082;28;20187;-73
2023/12/08 09:15:43;;;;;;;14.97;8.70;;;5.70;86.60;;;;;;5049678;28;20424;-74
2023/12/08 09:18:09;;;;;;;17.97;9.20;;;5.70;86.60;;;;;;5051754;28;20185;-75
2023/12/08 09:20:36;;;;;;;17.07;9.30;;;5.80;86.50;;;;;;5041805;28;20546;-76
2023/12/08 09:23:02;;;;;;;15.30;7.30;;;5.80;86.30;;;;;;5048370;28;20424;-75
2023/12/08 09:25:28;;;;;;;22.77;7.73;;;6.00;86.50;;;;;;5050497;28;21057;-78
2023/12/08 09:27:54;;;;;;;13.63;7.77;;;6.00;86.20;;;;;;5051345;28;20416;-73
2023/12/08 09:30:20;;;;;;;14.90;6.63;;;5.90;86.00;;;;;;5047763;28;20456;-73
2023/12/08 09:32:45;;;;;;;12.30;6.70;;;6.00;86.20;;;;;;5051925;28;20196;-74
2023/12/08 09:35:11;;;;;;;10.60;6.50;;;6.00;86.50;;;;;;5048981;28;20407;-77
2023/12/08 09:37:37;;;;;;;18.60;10.27;;;6.10;86.60;;;;;;5035459;28;20647;-75
2023/12/08 09:40:05;;;;;;;28.97;12.00;;;6.10;86.60;;;;;;5041686;28;20566;-76
2023/12/08 09:42:38;;;;;;;29.67;13.47;;;6.10;86.60;;;;;;5047174;28;20185;-76
2023/12/08 09:45:05;;;;;;;27.70;14.60;;;6.00;86.50;;;;;;5048100;28;20467;-73
2023/12/08 09:47:34;;;;;;;42.07;15.33;;;6.00;86.60;;;;;;5046853;28;20427;-75
2023/12/08 09:50:03;;;;;;;33.10;13.53;;;5.90;86.50;;;;;;5044635;28;20454;-76
2023/12/08 09:52:30;;;;;;;27.03;13.13;;;5.90;86.80;;;;;;5047232;28;20448;-76
2023/12/08 09:54:57;;;;;;;24.47;14.33;;;5.90;86.80;;;;;;5048373;28;20435;-73
2023/12/08 09:57:24;;;;;;;30.73;13.87;;;6.00;86.90;;;;;;5042852;28;20416;-75
2023/12/08 09:59:53;;;;;;;29.40;14.63;;;6.00;86.90;;;;;;5040302;28;20561;-74
2023/12/08 10:02:19;;;;;;;27.33;12.63;;;6.10;87.00;;;;;;5039703;28;20492;-75
2023/12/08 10:04:45;;;;;;;30.50;11.70;;;6.20;87.00;;;;;;5035455;28;20522;-73
2023/12/08 10:07:12;;;;;;;25.17;10.90;;;6.10;86.90;;;;;;5037912;28;20169;-75
2023/12/08 10:09:41;;;;;;;23.07;12.67;;;6.20;86.80;;;;;;5037408;28;20461;-75
2023/12/08 10:12:06;;;;;;;25.20;13.63;;;6.20;86.80;;;;;;5040445;28;20523;-77
2023/12/08 10:14:33;;;;;;;15.17;8.20;;;6.30;86.80;;;;;;5039809;28;20486;-75
2023/12/08 10:17:00;;;;;;;14.40;7.90;;;6.30;86.60;;;;;;5031541;28;20177;-78
2023/12/08 10:19:25;;;;;;;13.43;6.53;;;6.40;86.60;;;;;;5030246;28;20420;-74
2023/12/08 10:22:01;;;;;;;13.43;5.90;;;6.40;86.30;;;;;;5035966;28;20404;-76
2023/12/08 10:24:29;;;;;;;12.37;5.87;;;6.40;86.00;;;;;;5027940;28;20209;-74
2023/12/08 10:26:57;;;;;;;11.60;5.57;;;6.40;85.60;;;;;;5033518;28;20424;-75
2023/12/08 10:29:23;;;;;;;11.50;5.00;;;6.40;85.70;;;;;;5025977;28;20578;-74
2023/12/08 10:31:50;;;;;;;11.13;4.90;;;6.50;85.70;;;;;;5033241;28;20539;-74
2023/12/08 10:34:16;;;;;;;11.17;5.90;;;6.50;85.50;;;;;;5036859;28;20169;-76
2023/12/08 10:36:42;;;;;;;15.60;5.63;;;6.60;85.50;;;;;;5041526;28;20466;-74
2023/12/08 10:39:07;;;;;;;10.77;4.87;;;6.60;85.30;;;;;;5040450;28;20247;-76
2023/12/08 10:41:33;;;;;;;9.53;4.87;;;6.70;85.00;;;;;;5039095;28;20197;-74
2023/12/08 10:44:05;;;;;;;11.93;4.80;;;6.70;85.00;;;;;;5043847;28;20686;-76
2023/12/08 10:46:34;;;;;;;7.63;4.37;;;6.70;85.00;;;;;;5041304;28;20450;-76
2023/12/08 10:49:01;;;;;;;12.00;5.10;;;6.80;84.70;;;;;;5032925;28;20432;-77
2023/12/08 10:51:27;;;;;;;12.80;5.57;;;6.80;84.60;;;;;;5029251;28;20507;-75
2023/12/08 10:53:53;;;;;;;11.77;5.13;;;6.80;84.60;;;;;;5032769;28;20416;-75
2023/12/08 10:56:21;;;;;;;10.17;4.50;;;6.80;84.60;;;;;;5034083;28;20416;-75
2023/12/08 10:58:55;;;;;;;12.50;5.17;;;6.80;84.40;;;;;;5033229;28;20181;-76
2023/12/08 11:01:23;;;;;;;10.10;5.27;;;6.80;84.70;;;;;;5029168;28;20478;-75
2023/12/08 11:03:56;;;;;;;13.37;5.10;;;6.90;84.70;;;;;;5037070;28;20838;-75
2023/12/08 11:06:24;;;;;;;17.67;5.40;;;7.00;84.70;;;;;;5031788;28;20431;-74
2023/12/08 11:08:55;;;;;;;9.50;4.80;;;7.00;84.30;;;;;;5033462;28;20424;-74
2023/12/08 11:11:23;;;;;;;9.33;4.80;;;7.00;84.30;;;;;;5024902;28;20548;-74
2023/12/08 11:13:53;;;;;;;10.03;5.17;;;7.10;84.40;;;;;;5035915;28;20526;-73
2023/12/08 11:16:34;;;;;;;9.40;4.83;;;7.20;84.10;;;;;;5032685;28;20436;-74
2023/12/08 11:19:00;;;;;;;18.47;5.67;;;7.20;84.10;;;;;;5027925;28;20432;-76
2023/12/08 11:21:27;;;;;;;9.37;4.50;;;7.20;83.80;;;;;;5027269;28;20472;-74
2023/12/08 11:23:54;;;;;;;9.40;5.20;;;7.30;84.00;;;;;;5033734;28;20464;-74
2023/12/08 11:26:48;;;;;;;8.63;5.20;;;7.40;83.80;;;;;;5033310;28;20441;-74
2023/12/08 11:29:36;;;;;;;7.37;4.60;;;7.50;83.70;;;;;;5032241;28;20425;-76
2023/12/08 11:32:35;;;;;;;9.40;4.70;;;7.50;83.40;;;;;;5040160;28;20416;-75
2023/12/08 11:35:03;;;;;;;11.87;6.40;;;7.60;83.00;;;;;;5032646;28;20423;-74
2023/12/08 11:37:29;;;;;;;8.83;4.67;;;7.60;83.30;;;;;;5035730;28;20460;-74
2023/12/08 11:40:11;;;;;;;10.10;4.50;;;7.70;83.30;;;;;;5027414;28;21050;-74
2023/12/08 11:42:42;;;;;;;11.17;5.47;;;7.70;83.10;;;;;;5025873;28;20451;-74
2023/12/08 11:45:10;;;;;;;10.23;4.47;;;7.80;83.30;;;;;;5027780;28;20840;-72
2023/12/08 11:47:36;;;;;;;10.70;5.13;;;7.90;83.30;;;;;;5037551;28;20443;-75
2023/12/08 11:50:03;;;;;;;7.83;4.40;;;8.00;81.80;;;;;;5038860;28;20451;-74
2023/12/08 11:52:31;;;;;;;8.83;4.83;;;8.10;81.80;;;;;;5046848;28;20830;-75
2023/12/08 11:55:20;;;;;;;6.30;4.30;;;8.20;81.80;;;;;;5057290;28;20427;-74
2023/12/08 11:58:06;;;;;;;7.83;4.30;;;8.20;81.10;;;;;;5032824;28;20420;-74
2023/12/08 12:00:37;;;;;;;8.67;4.50;;;8.20;80.90;;;;;;5031341;28;20497;-76
2023/12/08 12:03:05;;;;;;;8.20;5.07;;;8.30;81.10;;;;;;5037470;28;20446;-75
2023/12/08 12:05:30;;;;;;;8.63;5.33;;;8.30;80.90;;;;;;5032000;28;20932;-75
2023/12/08 12:07:57;;;;;;;7.93;4.97;;;8.40;80.30;;;;;;5035294;28;21079;-73
2023/12/08 12:10:32;;;;;;;10.63;5.50;;;8.40;80.30;;;;;;5026587;28;20197;-73
2023/12/08 12:13:14;;;;;;;11.13;5.83;;;8.40;80.60;;;;;;5032009;28;20422;-74
2023/12/08 12:15:41;;;;;;;7.83;4.90;;;8.40;80.50;;;;;;5028091;28;20431;-75
2023/12/08 12:18:07;;;;;;;9.70;5.23;;;8.50;80.20;;;;;;5035079;28;20523;-76
2023/12/08 12:20:38;;;;;;;8.83;5.33;;;8.50;80.20;;;;;;5026154;28;20471;-75
2023/12/08 12:23:04;;;;;;;10.60;4.90;;;8.50;80.50;;;;;;5032599;28;20431;-74
2023/12/08 12:25:29;;;;;;;7.40;4.20;;;8.50;80.50;;;;;;5036207;28;20447;-75
2023/12/08 12:27:55;;;;;;;9.73;5.20;;;8.50;80.30;;;;;;5036829;28;20435;-75
2023/12/08 12:30:22;;;;;;;7.47;5.13;;;8.50;80.50;;;;;;5031029;28;20689;-75
2023/12/08 12:32:48;;;;;;;9.17;4.80;;;8.60;80.50;;;;;;5035395;28;20192;-74
2023/12/08 12:35:15;;;;;;;11.00;4.50;;;8.70;80.60;;;;;;5033879;28;20447;-75
2023/12/08 12:37:41;;;;;;;11.13;4.73;;;8.60;80.20;;;;;;5036222;28;20790;-75
2023/12/08 12:40:08;;;;;;;6.03;4.20;;;8.70;80.50;;;;;;5034249;28;20506;-75
2023/12/08 12:42:48;;;;;;;9.03;4.20;;;8.70;80.50;;;;;;5037089;28;20850;-74